Time;durP1;ratioP1;P1;durP2;ratioP2;P2;SDS_P1;SDS_P2;PMS_P1;PMS_P2;Temp;Humidity;BMP_temperature;BMP_pressure;BME280_temperature;BME280_humidity;BME280_pressure;Samples;Min_cycle;Max_cycle;Signal;HPM_P1;HPM_P2
2022/05/15 00:03:49;;;;;;;8.32;3.08;;;;;;;14.02;58.25;100065.47;12202491;19;20015;-81
2022/05/15 00:07:52;;;;;;;9.33;4.77;;;;;;;13.93;58.64;100061.53;12217872;19;20472;-82
2022/05/15 00:11:53;;;;;;;7.60;4.75;;;;;;;13.84;59.40;100047.31;12195544;19;20255;-81
2022/05/15 00:15:55;;;;;;;12.13;7.07;;;;;;;13.74;59.94;100047.22;12204106;19;20010;-81
2022/05/15 00:19:57;;;;;;;9.18;5.55;;;;;;;13.62;60.47;100048.28;12209208;19;20018;-81
2022/05/15 00:24:01;;;;;;;10.98;5.03;;;;;;;13.54;61.07;100047.91;12190752;19;20126;-81
2022/05/15 00:28:04;;;;;;;10.38;6.10;;;;;;;13.44;61.21;100038.44;12214997;19;20386;-82
2022/05/15 00:32:06;;;;;;;8.88;5.13;;;;;;;13.34;61.78;100041.09;12212613;19;20011;-81
2022/05/15 00:36:07;;;;;;;12.20;5.97;;;;;;;13.26;62.89;100040.72;12188913;19;20006;-81
2022/05/15 00:40:12;;;;;;;8.63;5.05;;;;;;;13.21;63.36;100033.19;12210752;19;20098;-81
2022/05/15 00:44:14;;;;;;;10.05;5.10;;;;;;;13.19;64.06;100032.59;12186818;19;20010;-81
2022/05/15 00:48:16;;;;;;;8.10;3.88;;;;;;;13.15;64.27;100035.06;12212933;19;20010;-82
2022/05/15 00:52:23;;;;;;;6.05;3.80;;;;;;;13.09;64.79;100036.13;12205252;19;20405;-82
2022/05/15 00:56:28;;;;;;;7.45;3.53;;;;;;;13.06;64.79;100036.63;12182840;19;20034;-81
2022/05/15 01:00:33;;;;;;;4.63;3.20;;;;;;;12.97;65.74;100036.28;12211604;19;20837;-82
2022/05/15 01:04:35;;;;;;;8.27;3.45;;;;;;;12.91;65.98;100033.69;12206888;19;20003;-82
2022/05/15 01:08:36;;;;;;;10.48;3.75;;;;;;;12.94;66.57;100028.50;12179998;19;20010;-82
2022/05/15 01:12:40;;;;;;;4.90;2.97;;;;;;;13.04;67.22;100026.94;12206836;19;20085;-81
2022/05/15 01:16:43;;;;;;;7.40;3.17;;;;;;;13.10;67.62;100020.34;12197409;19;20082;-82
2022/05/15 01:20:46;;;;;;;;;;;;;;;13.12;67.96;100030.06;12182941;19;20010;-81
2022/05/15 01:24:48;;;;;;;7.25;3.20;;;;;;;13.22;67.88;100024.63;12202176;19;19911;-81
2022/05/15 01:28:50;;;;;;;7.10;3.10;;;;;;;13.31;67.65;100015.88;12203296;19;20019;-82
2022/05/15 01:32:52;;;;;;;7.13;3.15;;;;;;;13.35;67.80;100020.59;12185164;19;20022;-81
2022/05/15 01:36:55;;;;;;;8.98;3.38;;;;;;;13.36;68.78;100018.69;12201623;19;20010;-82
2022/05/15 01:40:59;;;;;;;8.80;2.92;;;;;;;13.39;69.05;100020.94;12208889;19;20472;-82
2022/05/15 01:45:00;;;;;;;8.13;2.60;;;;;;;13.42;68.84;100017.63;12181345;19;20106;-82
2022/05/15 01:49:06;;;;;;;10.95;3.25;;;;;;;13.54;68.38;100023.00;12201757;19;20571;-82
2022/05/15 01:53:09;;;;;;;5.63;3.08;;;;;;;13.69;68.00;100020.34;12199709;19;20467;-82
2022/05/15 01:57:11;;;;;;;5.97;2.67;;;;;;;13.82;67.30;100028.19;12181561;19;20366;-82
2022/05/15 02:01:13;;;;;;;5.47;3.28;;;;;;;13.94;66.69;100029.94;12201518;19;20018;-82
2022/05/15 02:05:17;;;;;;;6.40;2.88;;;;;;;13.94;66.44;100025.22;12180326;19;20006;-81
2022/05/15 02:09:19;;;;;;;4.30;2.72;;;;;;;13.91;66.79;100025.75;12204933;19;20010;-82
2022/05/15 02:13:20;;;;;;;6.35;3.03;;;;;;;13.84;67.06;100036.25;12202747;19;20050;-83
2022/05/15 02:17:23;;;;;;;5.78;2.55;;;;;;;13.74;67.23;100025.06;12172030;19;20006;-82
2022/05/15 02:21:25;;;;;;;8.67;3.67;;;;;;;13.63;67.53;100019.47;12205207;19;20014;-80
2022/05/15 02:25:27;;;;;;;16.40;3.60;;;;;;;13.52;68.11;100025.19;12204156;19;20263;-82
2022/05/15 02:29:30;;;;;;;6.30;3.40;;;;;;;13.41;69.25;100013.19;12173910;19;20078;-81
2022/05/15 02:33:33;;;;;;;6.28;3.15;;;;;;;13.39;68.75;100012.63;12203675;19;20011;-81
2022/05/15 02:37:36;;;;;;;8.25;3.17;;;;;;;13.37;69.10;100009.28;12205041;19;20020;-83
2022/05/15 02:41:37;;;;;;;6.60;2.50;;;;;;;13.37;69.18;100004.56;12186904;19;20102;-81
2022/05/15 02:45:40;;;;;;;8.13;2.60;;;;;;;13.52;67.97;100011.34;12190611;19;20630;-81
2022/05/15 02:54:02;;;;;;;6.18;2.83;;;;;;;13.81;66.75;100009.91;12183385;19;20185;-81
2022/05/15 02:58:04;;;;;;;5.55;2.58;;;;;;;13.90;65.83;100013.84;12203008;19;20014;-82
2022/05/15 03:02:07;;;;;;;7.28;2.35;;;;;;;13.99;65.61;100010.59;12204151;19;20023;-83
2022/05/15 03:06:09;;;;;;;4.40;2.50;;;;;;;14.02;65.04;100005.34;12168016;19;20021;-83
2022/05/15 03:10:15;;;;;;;15.05;2.85;;;;;;;14.06;65.04;100006.44;12198563;19;20011;-82
2022/05/15 03:14:17;;;;;;;3.83;2.78;;;;;;;14.06;65.30;100006.44;12177841;19;20023;-82
2022/05/15 03:18:20;;;;;;;4.10;1.83;;;;;;;14.09;64.54;100007.84;12197521;19;20082;-82
2022/05/15 03:22:22;;;;;;;4.50;2.73;;;;;;;14.13;63.95;99997.94;12199524;19;20015;-82
2022/05/15 03:26:25;;;;;;;6.00;2.60;;;;;;;14.21;63.43;99997.38;12185597;19;20086;-82
2022/05/15 03:30:27;;;;;;;6.15;2.15;;;;;;;14.27;63.00;100012.94;12209457;19;20010;-82
2022/05/15 03:34:28;;;;;;;4.15;1.83;;;;;;;14.32;62.77;100003.84;12207437;19;20011;-81
2022/05/15 03:38:30;;;;;;;6.93;2.55;;;;;;;14.41;62.58;100007.75;12190595;19;20078;-82
2022/05/15 03:42:32;;;;;;;9.20;2.20;;;;;;;14.42;62.79;100003.88;12211603;19;20073;-82
2022/05/15 03:46:34;;;;;;;6.88;2.00;;;;;;;14.40;62.35;100008.88;12210226;19;20010;-81
2022/05/15 03:50:36;;;;;;;5.13;2.20;;;;;;;14.47;61.78;100009.44;12184539;19;20038;-82
2022/05/15 03:54:38;;;;;;;4.68;2.50;;;;;;;14.61;60.92;100011.75;12207933;19;20014;-83
2022/05/15 03:58:40;;;;;;;4.75;2.03;;;;;;;14.72;60.75;100013.44;12207623;19;20015;-83
2022/05/15 04:02:43;;;;;;;5.17;2.53;;;;;;;14.79;60.53;100022.34;12201940;19;20075;-83
2022/05/15 04:06:45;;;;;;;6.13;2.40;;;;;;;14.81;60.83;100017.34;12212649;19;20590;-83
2022/05/15 04:10:47;;;;;;;6.28;2.50;;;;;;;14.70;60.99;100026.78;12199626;19;20014;-83
2022/05/15 04:14:48;;;;;;;8.38;2.80;;;;;;;14.52;61.77;100028.91;12191057;19;20411;-83
2022/05/15 04:18:50;;;;;;;6.97;2.90;;;;;;;14.27;62.41;100026.81;12228367;19;20023;-83
2022/05/15 04:22:52;;;;;;;6.57;2.53;;;;;;;14.09;63.29;100024.50;12267111;19;20380;-83
2022/05/15 04:26:54;;;;;;;6.17;2.53;;;;;;;13.95;64.00;100043.53;12234604;19;20049;-83
2022/05/15 04:30:56;;;;;;;6.43;2.30;;;;;;;13.82;64.80;100038.44;12258498;19;20013;-83
2022/05/15 04:34:57;;;;;;;5.82;2.50;;;;;;;13.70;65.30;100040.56;12251379;19;20017;-83
2022/05/15 04:39:01;;;;;;;6.60;2.40;;;;;;;13.57;65.92;100036.31;12232144;19;20030;-83
2022/05/15 04:43:03;;;;;;;7.22;3.25;;;;;;;13.47;66.98;100034.28;12260961;19;20006;-83
2022/05/15 04:47:05;;;;;;;4.68;2.90;;;;;;;13.42;67.26;100034.25;12257939;19;20003;-83
2022/05/15 04:51:07;;;;;;;5.35;2.30;;;;;;;13.36;67.89;100043.59;12239330;19;20022;-83
2022/05/15 04:55:09;;;;;;;5.30;2.53;;;;;;;13.34;67.98;100041.09;12247219;19;20015;-84
2022/05/15 04:59:10;;;;;;;6.50;2.73;;;;;;;13.33;68.41;100049.66;12212228;19;20088;-84
2022/05/15 05:03:12;;;;;;;5.03;2.72;;;;;;;13.31;68.84;100047.16;12191696;19;20011;-84
2022/05/15 05:07:14;;;;;;;5.57;2.83;;;;;;;13.32;68.82;100045.22;12208008;19;20033;-83
2022/05/15 05:11:16;;;;;;;4.30;2.55;;;;;;;13.29;69.60;100042.97;12192720;19;20025;-83
2022/05/15 05:15:17;;;;;;;7.50;3.50;;;;;;;13.32;69.51;100047.97;12212912;19;20055;-83
2022/05/15 05:19:22;;;;;;;9.23;2.78;;;;;;;13.36;69.79;100044.44;12205769;19;20019;-83
2022/05/15 05:23:23;;;;;;;10.00;3.35;;;;;;;13.44;70.21;100051.41;12199918;19;20159;-83
2022/05/15 05:27:26;;;;;;;5.70;2.97;;;;;;;13.52;70.28;100053.69;12229052;19;20007;-82
2022/05/15 05:31:28;;;;;;;6.10;3.20;;;;;;;13.64;70.26;100056.31;12237107;19;20039;-82
2022/05/15 05:35:30;;;;;;;7.32;3.60;;;;;;;13.74;70.41;100056.41;12193464;19;20018;-83
2022/05/15 05:39:32;;;;;;;12.73;3.80;;;;;;;13.90;70.29;100068.41;12209748;19;20610;-82
2022/05/15 05:43:37;;;;;;;4.60;3.35;;;;;;;14.02;70.19;100074.59;12236307;19;20349;-82
2022/05/15 05:47:39;;;;;;;6.65;3.22;;;;;;;14.16;69.45;100082.44;12192843;19;20033;-84
2022/05/15 05:51:40;;;;;;;8.02;3.88;;;;;;;14.29;69.30;100082.81;12205676;19;20015;-82
2022/05/15 05:55:42;;;;;;;8.88;3.45;;;;;;;14.41;69.36;100093.69;12219921;19;20490;-83
2022/05/15 05:59:44;;;;;;;5.97;3.25;;;;;;;14.54;68.80;100084.91;12187415;19;20010;-84
2022/05/15 06:08:07;;;;;;;5.80;3.22;;;;;;;14.82;68.58;100085.63;12210014;19;20019;-83
2022/05/15 06:12:09;;;;;;;6.77;3.80;;;;;;;14.95;68.57;100090.66;12187593;19;20006;-83
2022/05/15 06:16:13;;;;;;;;;;;;;;;15.09;68.29;100084.59;12223871;19;20026;-83
2022/05/15 06:20:16;;;;;;;8.00;3.03;;;;;;;15.21;67.82;100083.25;12217212;19;19919;-83
2022/05/15 06:24:25;;;;;;;9.30;3.17;;;;;;;15.44;66.73;100087.47;12241981;19;20066;-83
2022/05/15 06:28:29;;;;;;;9.25;3.20;;;;;;;15.70;65.09;100080.03;12213083;19;20010;-83
2022/05/15 06:32:30;;;;;;;5.20;2.90;;;;;;;15.93;64.42;100080.56;12184097;19;20007;-84
2022/05/15 06:36:32;;;;;;;9.60;3.40;;;;;;;16.13;63.77;100072.19;12207221;19;20515;-83
2022/05/15 06:40:34;;;;;;;9.48;3.10;;;;;;;16.38;62.45;100065.75;12204793;19;20011;-83
2022/05/15 06:44:35;;;;;;;5.60;3.08;;;;;;;16.63;62.17;100069.56;12200356;19;20046;-83
2022/05/15 06:48:39;;;;;;;7.20;2.85;;;;;;;16.89;61.73;100066.72;12192533;19;20015;-84
2022/05/15 06:52:41;;;;;;;7.30;3.50;;;;;;;17.13;60.46;100070.47;12223283;19;20035;-81
2022/05/15 07:01:13;;;;;;;5.63;3.25;;;;;;;17.63;58.75;100076.81;12221952;19;20031;-84
2022/05/15 07:05:22;;;;;;;8.88;3.03;;;;;;;17.87;57.36;100074.16;12207594;19;20014;-83
2022/05/15 07:09:26;;;;;;;7.55;3.03;;;;;;;18.15;57.38;100078.09;12236866;19;20017;-82
2022/05/15 07:13:32;;;;;;;4.70;2.92;;;;;;;18.37;57.14;100076.75;12226264;19;20015;-81
2022/05/15 07:17:34;;;;;;;7.07;2.95;;;;;;;18.55;56.60;100076.00;12171875;19;20100;-82
2022/05/15 07:21:35;;;;;;;7.60;3.08;;;;;;;18.78;56.31;100073.53;12214627;19;20495;-83
2022/05/15 07:25:38;;;;;;;5.22;2.90;;;;;;;19.08;55.47;100072.31;12208657;19;20010;-82
2022/05/15 07:29:40;;;;;;;5.47;2.83;;;;;;;19.34;53.93;100078.38;12196350;19;20019;-82
2022/05/15 07:33:42;;;;;;;7.93;2.92;;;;;;;19.57;52.71;100080.25;12213710;19;20023;-82
2022/05/15 07:37:44;;;;;;;4.53;2.95;;;;;;;19.87;53.31;100083.72;12210163;19;20018;-83
2022/05/15 07:41:47;;;;;;;7.93;3.07;;;;;;;20.17;51.63;100073.13;12194491;19;20014;-83
2022/05/15 07:45:49;;;;;;;6.93;3.00;;;;;;;20.41;51.25;100076.59;12213496;19;20015;-83
2022/05/15 07:49:51;;;;;;;11.23;3.45;;;;;;;20.47;50.88;100074.53;12214254;19;20002;-83
2022/05/15 07:53:53;;;;;;;6.00;3.70;;;;;;;20.57;50.54;100079.94;12193773;19;20199;-82
2022/05/15 07:57:54;;;;;;;9.57;3.40;;;;;;;20.82;50.63;100080.56;12214216;19;20002;-82
2022/05/15 08:01:58;;;;;;;5.97;2.85;;;;;;;20.97;49.83;100079.41;12211403;19;20010;-82
2022/05/15 08:10:20;;;;;;;5.78;3.00;;;;;;;21.36;49.34;100078.88;12208210;19;20066;-82
2022/05/15 08:14:22;;;;;;;5.53;2.90;;;;;;;21.51;49.16;100077.69;12195711;19;20010;-82
2022/05/15 08:27:05;;;;;;;5.15;3.17;;;;;;;22.00;48.97;100075.91;12183939;19;20086;-84
2022/05/15 08:31:09;;;;;;;6.22;3.13;;;;;;;22.18;48.77;100077.72;12209988;19;20014;-82
2022/05/15 08:35:11;;;;;;;;;;;;;;;22.33;48.47;100072.84;12206881;19;20007;-80
2022/05/15 08:39:13;;;;;;;5.50;3.33;;;;;;;22.40;47.42;100065.63;12179168;19;19911;-80
2022/05/15 08:43:18;;;;;;;6.97;2.90;;;;;;;22.55;47.40;100069.13;12206362;19;20091;-80
2022/05/15 08:47:23;;;;;;;7.38;3.03;;;;;;;22.64;47.19;100065.22;12180140;19;20014;-81
2022/05/15 08:51:25;;;;;;;7.35;2.83;;;;;;;22.93;47.17;100063.81;12209053;19;20011;-79
2022/05/15 08:55:38;;;;;;;7.30;3.03;;;;;;;23.23;45.05;100059.31;12202313;19;20074;-79
2022/05/15 08:59:57;;;;;;;5.38;2.70;;;;;;;23.37;44.55;100059.97;12182310;19;20011;-80
2022/05/15 09:03:59;;;;;;;9.25;2.83;;;;;;;23.58;44.91;100051.69;12213800;19;20018;-80
2022/05/15 09:08:39;;;;;;;5.43;2.45;;;;;;;23.85;43.55;100064.63;12201288;19;20027;-80
2022/05/15 09:12:46;;;;;;;9.55;2.50;;;;;;;24.02;43.94;100060.13;12177993;19;20022;-80
2022/05/15 09:16:57;;;;;;;5.90;2.78;;;;;;;24.14;42.63;100053.81;12187349;19;20473;-80
2022/05/15 09:21:26;;;;;;;7.67;2.87;;;;;;;24.28;41.99;100060.09;12184442;19;20449;-82
2022/05/15 09:25:33;;;;;;;5.60;2.72;;;;;;;24.25;41.24;100057.94;12197351;19;20014;-80
2022/05/15 09:29:35;;;;;;;5.65;2.92;;;;;;;24.65;41.27;100061.28;12181109;19;20022;-80
2022/05/15 09:33:50;;;;;;;8.17;3.20;;;;;;;24.87;41.19;100062.19;12207967;19;20014;-80
2022/05/15 09:46:58;;;;;;;5.95;2.65;;;;;;;25.09;39.25;100052.59;12205194;19;20762;-81
2022/05/15 09:51:02;;;;;;;5.32;2.70;;;;;;;25.27;39.08;100042.88;12181316;19;20014;-80
2022/05/15 09:55:12;;;;;;;7.30;2.45;;;;;;;25.62;38.11;100051.06;12208961;19;20349;-80
2022/05/15 09:59:14;;;;;;;7.38;3.10;;;;;;;25.87;37.43;100037.91;12194120;19;20099;-80
2022/05/15 10:03:24;;;;;;;6.72;2.13;;;;;;;25.88;37.00;100037.59;12200720;19;19999;-81
2022/05/15 10:07:34;;;;;;;3.45;1.98;;;;;;;26.01;35.64;100043.25;12204084;19;20015;-80
2022/05/15 10:11:40;;;;;;;7.90;2.13;;;;;;;26.09;36.35;100031.88;12188402;19;20468;-81
2022/05/15 10:15:46;;;;;;;7.28;2.05;;;;;;;26.21;36.30;100025.44;12193443;19;20398;-81
2022/05/15 10:19:47;;;;;;;7.05;2.40;;;;;;;26.33;36.60;100027.47;12214931;19;20039;-81
2022/05/15 10:24:04;;;;;;;6.70;2.83;;;;;;;26.26;35.67;100016.72;12190383;19;20084;-80
2022/05/15 10:28:18;;;;;;;5.25;2.38;;;;;;;26.40;34.75;100015.56;12204444;19;20007;-80
2022/05/15 10:32:23;;;;;;;4.63;2.33;;;;;;;26.52;33.96;100007.97;12180624;19;20013;-80
2022/05/15 10:36:39;;;;;;;5.30;2.22;;;;;;;26.71;34.53;100007.38;12200908;19;20033;-79
2022/05/15 10:40:54;;;;;;;7.43;2.50;;;;;;;27.09;34.71;100013.81;12207726;19;20464;-79
2022/05/15 10:45:15;;;;;;;7.88;3.05;;;;;;;27.34;33.83;99998.47;12173500;19;20007;-80
2022/05/15 10:49:44;;;;;;;5.40;2.53;;;;;;;27.45;31.79;99987.44;12203592;19;20021;-81
2022/05/15 10:58:50;;;;;;;5.18;2.13;;;;;;;27.70;31.43;99974.84;12207186;19;20326;-82
2022/05/15 11:03:19;;;;;;;4.53;1.70;;;;;;;27.62;31.05;99975.00;12183895;19;20788;-81
2022/05/15 11:07:31;;;;;;;4.13;1.88;;;;;;;27.69;30.39;99959.06;12195742;19;20010;-83
2022/05/15 11:11:59;;;;;;;7.68;1.80;;;;;;;27.97;30.73;99971.56;12186552;19;20019;-82
2022/05/15 11:16:19;;;;;;;6.18;2.25;;;;;;;28.09;29.84;99948.81;12198630;19;20075;-81
2022/05/15 11:20:33;;;;;;;7.30;2.17;;;;;;;28.21;29.56;99943.06;12178072;19;20017;-82
2022/05/15 11:25:06;;;;;;;3.80;1.80;;;;;;;28.51;29.44;99949.09;12206749;19;20082;-80
2022/05/15 11:29:12;;;;;;;4.80;1.70;;;;;;;28.46;29.70;99943.72;12208208;19;20042;-81
2022/05/15 11:33:17;;;;;;;4.80;2.35;;;;;;;28.35;28.05;99942.63;12187199;19;20343;-82
2022/05/15 11:37:57;;;;;;;6.13;1.80;;;;;;;28.26;28.78;99936.28;12212546;19;20010;-82
2022/05/15 11:42:10;;;;;;;3.85;1.65;;;;;;;28.87;28.36;99930.09;12191969;19;20023;-82
2022/05/15 11:46:12;;;;;;;3.40;1.63;;;;;;;29.22;26.84;99920.75;12207254;19;20007;-81
2022/05/15 11:50:41;;;;;;;3.55;1.85;;;;;;;29.88;27.23;99913.97;12186639;19;20540;-82
2022/05/15 11:54:47;;;;;;;6.13;2.10;;;;;;;30.24;25.41;99914.63;12205763;19;20010;-83
2022/05/15 11:59:01;;;;;;;11.18;2.22;;;;;;;30.69;24.58;99915.72;12220589;19;20111;-85
2022/05/15 12:03:02;;;;;;;4.50;2.40;;;;;;;31.20;24.03;99923.78;12186232;19;20426;-84
2022/05/15 12:07:04;;;;;;;;;;;;;;;31.26;24.42;99912.88;12208176;19;20516;-84
2022/05/15 12:11:18;;;;;;;5.07;2.10;;;;;;;31.34;24.99;99906.06;12218783;19;20333;-83
2022/05/15 12:15:40;;;;;;;6.70;1.98;;;;;;;31.52;24.05;99912.81;12184859;19;20007;-84
2022/05/15 12:19:45;;;;;;;4.32;2.13;;;;;;;31.77;23.81;99904.56;12210768;19;20078;-84
2022/05/15 12:28:52;;;;;;;3.55;2.33;;;;;;;32.28;23.93;99902.19;12210630;19;20520;-85
2022/05/15 12:33:07;;;;;;;5.97;2.20;;;;;;;32.13;22.25;99893.53;12183819;19;20066;-84
2022/05/15 12:37:12;;;;;;;3.75;1.95;;;;;;;32.78;22.29;99886.28;12207657;19;20007;-83
2022/05/15 12:41:27;;;;;;;7.10;2.45;;;;;;;33.55;21.54;99883.38;12207910;19;20096;-82
2022/05/15 12:45:32;;;;;;;5.82;1.98;;;;;;;34.17;21.19;99873.69;12209874;19;20090;-81
2022/05/15 12:49:47;;;;;;;4.30;2.25;;;;;;;34.73;21.07;99876.91;12210373;19;20014;-81
2022/05/15 12:53:52;;;;;;;7.05;2.63;;;;;;;35.10;19.61;99876.38;12190484;19;20007;-81
2022/05/15 12:58:05;;;;;;;6.25;2.67;;;;;;;36.03;19.37;99870.97;12217505;19;20342;-81
2022/05/15 13:02:14;;;;;;;6.57;2.30;;;;;;;36.47;18.84;99855.00;12208511;19;20450;-81
2022/05/15 13:06:20;;;;;;;3.28;2.13;;;;;;;37.12;18.69;99855.09;12185005;19;20014;-82
2022/05/15 13:10:42;;;;;;;6.28;2.10;;;;;;;37.55;18.18;99859.50;12207851;19;20485;-84
2022/05/15 13:14:52;;;;;;;6.82;1.92;;;;;;;37.82;17.09;99845.09;12212778;19;20006;-82
2022/05/15 13:24:59;;;;;;;4.53;1.67;;;;;;;34.97;18.58;99841.66;12232357;19;20015;-85
2022/05/15 13:34:56;;;;;;;;;;;;;;;;;;;;;
2022/05/15 13:44:03;;;;;;;6.97;2.15;;;;;;;34.29;20.03;99830.34;12205816;19;20012;-84
2022/05/15 13:49:19;;;;;;;5.75;2.30;;;;;;;35.78;19.30;99833.03;12193564;19;20007;-84
2022/05/15 13:53:42;;;;;;;9.50;2.35;;;;;;;35.71;18.30;99825.31;12198274;19;20017;-84
2022/05/15 13:58:08;;;;;;;4.65;2.28;;;;;;;35.46;18.77;99818.91;12202693;19;20027;-85
2022/05/15 14:02:51;;;;;;;4.13;2.10;;;;;;;35.56;18.73;99818.06;12203194;19;20027;-84
2022/05/15 14:07:04;;;;;;;4.25;2.33;;;;;;;36.82;17.68;99811.97;12195384;19;20015;-83
2022/05/15 14:11:06;;;;;;;8.23;2.30;;;;;;;37.50;17.28;99805.34;12198011;19;20011;-85
2022/05/15 14:15:34;;;;;;;4.30;2.13;;;;;;;38.85;16.47;99793.53;12176034;19;20011;-85
2022/05/15 14:20:00;;;;;;;5.57;1.88;;;;;;;39.49;15.60;99796.25;12189270;19;20007;-86
2022/05/15 14:24:11;;;;;;;5.13;2.20;;;;;;;38.61;15.83;99789.06;12169238;19;20044;-86
2022/05/15 14:28:52;;;;;;;4.18;2.08;;;;;;;37.59;16.96;99780.56;12196422;19;20010;-85
2022/05/15 14:33:03;;;;;;;5.20;3.90;;;;;;;36.53;17.70;99777.91;12166254;19;20074;-87
2022/05/15 14:37:08;;;;;;;5.65;2.35;;;;;;;37.06;17.09;99762.03;12195947;19;20006;-86
2022/05/15 14:41:16;;;;;;;5.88;2.33;;;;;;;37.74;16.70;99780.34;12204486;19;20010;-85
2022/05/15 14:45:32;;;;;;;3.88;2.20;;;;;;;36.96;16.90;99765.84;12181609;19;20010;-86
2022/05/15 14:49:46;;;;;;;4.80;2.22;;;;;;;35.48;17.98;99770.59;12203725;19;20080;-85
2022/05/15 14:54:21;;;;;;;5.68;2.33;;;;;;;33.92;19.34;99753.59;12173206;19;20011;-85
2022/05/15 14:58:24;;;;;;;5.13;2.22;;;;;;;33.32;20.11;99755.19;12200953;19;20030;-86
2022/05/15 15:02:26;;;;;;;6.72;2.20;;;;;;;32.70;20.48;99744.78;12177284;19;20010;-86
2022/05/15 15:06:31;;;;;;;4.18;1.95;;;;;;;32.03;21.34;99753.78;12183095;19;20082;-86
2022/05/15 15:10:38;;;;;;;3.80;2.65;;;;;;;31.56;21.38;99744.81;12197258;19;20526;-85
2022/05/15 15:14:40;;;;;;;5.13;2.17;;;;;;;31.17;21.99;99744.44;12172581;19;20019;-84
2022/05/15 15:18:42;;;;;;;4.13;2.25;;;;;;;30.67;22.83;99747.53;12189300;19;20516;-85
2022/05/15 15:22:48;;;;;;;7.70;2.20;;;;;;;29.96;23.52;99748.13;12204196;19;20366;-84
2022/05/15 15:26:50;;;;;;;;;;;;;;;29.45;23.94;99736.31;12180990;19;20010;-85
2022/05/15 15:30:52;;;;;;;;;;;;;;;28.89;24.26;99732.03;12218326;19;19922;-84
2022/05/15 15:34:56;;;;;;;7.45;2.00;;;;;;;28.86;24.57;99732.78;12212102;19;19914;-84
2022/05/15 15:38:59;;;;;;;4.10;2.10;;;;;;;29.31;24.46;99725.53;12186464;19;20074;-85
2022/05/15 15:43:01;;;;;;;4.57;1.85;;;;;;;29.28;24.57;99721.44;12217545;19;20006;-84
2022/05/15 15:47:04;;;;;;;3.38;1.85;;;;;;;29.01;24.84;99709.16;12205188;19;20014;-84
2022/05/15 15:51:37;;;;;;;4.00;1.85;;;;;;;28.73;25.51;99711.44;12178394;19;20059;-85
2022/05/15 15:55:39;;;;;;;;;;;;;;;28.56;25.97;99709.91;12212705;19;20363;-84
2022/05/15 15:59:42;;;;;;;5.90;2.63;;;;;;;28.40;25.77;99704.25;12188859;19;19907;-84
2022/05/15 16:03:44;;;;;;;4.63;2.30;;;;;;;28.09;26.51;99702.38;12218322;19;20015;-84
2022/05/15 16:07:46;;;;;;;4.95;2.13;;;;;;;28.04;26.60;99692.16;12206517;19;20015;-85
2022/05/15 16:11:49;;;;;;;6.45;2.08;;;;;;;27.77;27.21;99682.59;12195237;19;20471;-85
2022/05/15 16:16:11;;;;;;;5.07;2.30;;;;;;;27.61;27.14;99668.50;12216188;19;20066;-85
2022/05/15 16:20:21;;;;;;;3.67;1.98;;;;;;;27.43;27.65;99672.91;12213944;19;20476;-85
2022/05/15 16:24:31;;;;;;;6.35;2.00;;;;;;;27.11;28.30;99678.53;12189788;19;20081;-84
2022/05/15 16:28:34;;;;;;;3.78;1.63;;;;;;;26.74;28.44;99678.78;12213124;19;20070;-82
2022/05/15 16:32:39;;;;;;;6.43;2.10;;;;;;;26.70;28.26;99680.69;12197667;19;20437;-83
2022/05/15 16:36:41;;;;;;;4.32;1.95;;;;;;;26.58;28.65;99670.25;12204891;19;20437;-83
2022/05/15 16:40:45;;;;;;;6.05;2.00;;;;;;;26.41;28.59;99659.22;12221623;19;20593;-84
2022/05/15 16:44:48;;;;;;;7.50;1.90;;;;;;;26.16;28.79;99664.16;12187107;19;20020;-85
2022/05/15 16:48:50;;;;;;;5.07;2.38;;;;;;;26.06;28.69;99656.22;12219720;19;20010;-84
2022/05/15 16:52:53;;;;;;;6.63;2.28;;;;;;;25.88;28.46;99653.66;12213687;19;20002;-84
2022/05/15 16:56:54;;;;;;;2.60;1.92;;;;;;;25.77;28.58;99665.78;12190611;19;20026;-82
2022/05/15 17:00:57;;;;;;;4.20;1.83;;;;;;;25.70;28.67;99649.44;12215715;19;20054;-83
2022/05/15 17:04:59;;;;;;;5.57;1.80;;;;;;;25.71;29.25;99651.09;12215487;19;20259;-84
2022/05/15 17:09:02;;;;;;;3.65;1.75;;;;;;;25.72;29.02;99655.53;12191273;19;20081;-83
2022/05/15 17:13:05;;;;;;;4.53;1.90;;;;;;;25.62;29.53;99647.56;12214093;19;20487;-84
2022/05/15 17:17:07;;;;;;;6.75;1.90;;;;;;;25.56;29.86;99643.34;12204879;19;20015;-83
2022/05/15 17:21:08;;;;;;;4.17;1.73;;;;;;;25.53;29.95;99632.78;12192203;19;20014;-84
2022/05/15 17:25:12;;;;;;;4.57;2.43;;;;;;;25.50;30.25;99628.66;12214107;19;20701;-83
2022/05/15 17:37:54;;;;;;;3.47;2.55;;;;;;;25.15;31.39;99623.50;12206939;19;20003;-83
2022/05/15 17:41:56;;;;;;;5.03;1.90;;;;;;;25.04;31.46;99621.47;12199790;19;20010;-84
2022/05/15 17:45:58;;;;;;;4.63;1.80;;;;;;;24.97;32.04;99622.06;12214255;19;20014;-85
2022/05/15 17:50:00;;;;;;;5.50;1.87;;;;;;;24.86;32.83;99609.59;12205643;19;20010;-84
2022/05/15 17:54:02;;;;;;;4.60;2.22;;;;;;;24.71;33.01;99619.56;12185966;19;20007;-84
2022/05/15 17:58:08;;;;;;;5.60;2.05;;;;;;;24.64;32.37;99616.50;12207674;19;20006;-84
2022/05/15 18:06:40;;;;;;;9.80;2.42;;;;;;;24.35;33.21;99618.25;12187350;19;20086;-83
2022/05/15 18:10:42;;;;;;;7.93;2.43;;;;;;;24.21;33.90;99621.38;12201376;19;20021;-83
2022/05/15 18:14:44;;;;;;;4.67;2.03;;;;;;;24.02;34.59;99621.06;12181864;19;20010;-81
2022/05/15 18:18:46;;;;;;;5.07;1.75;;;;;;;23.76;35.17;99622.09;12208541;19;20010;-83
2022/05/15 18:22:50;;;;;;;3.70;1.70;;;;;;;23.50;36.26;99618.59;12209188;19;20681;-85
2022/05/15 18:26:52;;;;;;;5.93;2.08;;;;;;;23.25;37.18;99628.84;12190487;19;20511;-83
2022/05/15 18:30:55;;;;;;;6.17;1.70;;;;;;;22.97;37.65;99624.53;12210104;19;20022;-84
2022/05/15 18:34:57;;;;;;;6.85;2.35;;;;;;;22.67;38.49;99612.38;12207730;19;20013;-83
2022/05/15 18:38:58;;;;;;;5.15;1.83;;;;;;;22.36;39.73;99623.84;12179729;19;20006;-84
2022/05/15 18:43:06;;;;;;;8.02;1.92;;;;;;;22.06;40.63;99625.69;12217426;19;20077;-86
2022/05/15 18:47:08;;;;;;;3.88;2.00;;;;;;;21.77;40.81;99618.78;12220786;19;20017;-84
2022/05/15 18:55:31;;;;;;;5.28;2.30;;;;;;;21.26;42.15;99631.50;12204856;19;20013;-81
2022/05/15 18:59:32;;;;;;;5.50;2.20;;;;;;;21.02;42.57;99633.91;12187868;19;20014;-82
2022/05/15 19:03:34;;;;;;;3.42;1.75;;;;;;;20.85;42.94;99641.09;12241381;19;20010;-85
2022/05/15 19:07:36;;;;;;;4.27;2.03;;;;;;;20.68;44.15;99638.19;12237624;19;20007;-83
2022/05/15 19:11:38;;;;;;;5.03;2.22;;;;;;;20.49;43.53;99639.22;12234848;19;20015;-83
2022/05/15 19:15:42;;;;;;;6.47;2.05;;;;;;;20.38;44.29;99639.81;12247213;19;20013;-83
2022/05/15 19:19:45;;;;;;;6.68;2.15;;;;;;;20.23;44.22;99644.66;12236933;19;20002;-83
2022/05/15 19:23:47;;;;;;;5.60;2.42;;;;;;;20.07;45.14;99645.34;12220580;19;20018;-83
2022/05/15 19:27:48;;;;;;;5.45;2.33;;;;;;;19.94;45.00;99653.47;12231536;19;20007;-84
2022/05/15 19:31:50;;;;;;;5.43;2.17;;;;;;;19.79;45.25;99662.22;12223862;19;20010;-85
2022/05/15 19:35:53;;;;;;;7.63;2.40;;;;;;;19.71;45.60;99660.97;12195103;19;20364;-83
2022/05/15 19:39:55;;;;;;;6.35;2.78;;;;;;;19.62;46.15;99662.00;12217792;19;20292;-83
2022/05/15 19:43:57;;;;;;;6.77;2.83;;;;;;;19.48;46.87;99667.63;12250038;19;20015;-83
2022/05/15 19:47:58;;;;;;;6.73;2.80;;;;;;;19.37;47.18;99669.00;12205512;19;20054;-83
2022/05/15 19:52:02;;;;;;;5.05;2.50;;;;;;;19.27;47.28;99673.63;12234638;19;20010;-85
2022/05/15 19:56:25;;;;;;;4.95;2.60;;;;;;;19.22;48.53;99675.72;12237284;19;20010;-81
2022/05/15 20:00:30;;;;;;;6.38;2.33;;;;;;;19.17;47.54;99673.84;12228694;19;20003;-85
2022/05/15 20:11:30;;;;;;;7.05;2.50;;;;;;;19.12;47.99;99673.94;12228436;19;20474;-85
2022/05/15 20:13:15;;;;;;;6.18;2.47;;;;;;;19.09;47.85;99677.38;12230652;19;20039;-84
2022/05/15 20:17:18;;;;;;;4.38;2.42;;;;;;;19.05;47.73;99677.16;12224280;19;20007;-85
2022/05/15 20:21:20;;;;;;;3.75;2.30;;;;;;;19.08;47.73;99670.97;12255936;19;20010;-83
2022/05/15 20:25:23;;;;;;;5.40;2.22;;;;;;;19.04;48.08;99672.72;12253473;19;20014;-85
2022/05/15 20:29:28;;;;;;;4.32;2.17;;;;;;;18.99;48.17;99678.41;12226578;19;20017;-83